createdAt,value
2022-10-03T00:00:10.297Z,15.13
2022-10-03T00:02:48.151Z,15.85
2022-10-03T00:05:44.533Z,18.73
2022-10-03T00:08:32.400Z,14.25
2022-10-03T00:11:20.587Z,12.77
2022-10-03T00:13:49.786Z,12.73
2022-10-03T00:16:23.357Z,10.20
2022-10-03T00:18:52.643Z,14.48
2022-10-03T00:21:38.115Z,11.80
2022-10-03T00:24:25.990Z,14.10
2022-10-03T00:27:00.401Z,17.42
2022-10-03T00:29:48.921Z,12.88
2022-10-03T00:32:26.440Z,13.65
2022-10-03T00:35:13.122Z,11.32
2022-10-03T00:38:02.251Z,14.10
2022-10-03T00:40:44.112Z,15.18
2022-10-03T00:43:43.290Z,11.43
2022-10-03T00:46:19.907Z,10.70
2022-10-03T00:48:49.572Z,13.00
2022-10-03T00:51:31.193Z,13.13
2022-10-03T00:54:05.871Z,10.35
2022-10-03T00:56:42.528Z,14.10
2022-10-03T00:59:27.088Z,15.23
2022-10-03T01:01:54.085Z,11.88
2022-10-03T01:04:48.746Z,15.15
2022-10-03T01:07:56.142Z,10.50
2022-10-03T01:10:45.833Z,9.02
2022-10-03T01:13:35.962Z,14.32
2022-10-03T01:16:31.220Z,13.55
2022-10-03T01:19:26.863Z,14.02
2022-10-03T01:22:24.172Z,11.30
2022-10-03T01:25:19.687Z,13.05
2022-10-03T01:28:18.680Z,12.10
2022-10-03T01:30:56.138Z,14.98
2022-10-03T01:33:30.112Z,12.48
2022-10-03T01:36:17.359Z,13.25
2022-10-03T01:38:43.690Z,15.32
2022-10-03T01:41:23.179Z,15.07
2022-10-03T01:44:02.486Z,13.25
2022-10-03T01:46:42.633Z,13.23
2022-10-03T01:49:22.046Z,14.60
2022-10-03T01:52:17.445Z,13.25
2022-10-03T01:54:58.232Z,11.55
2022-10-03T01:57:38.229Z,22.85
2022-10-03T02:00:12.436Z,12.65
2022-10-03T02:03:16.334Z,15.63
2022-10-03T02:06:13.528Z,12.82
2022-10-03T02:09:04.844Z,11.88
2022-10-03T02:11:41.622Z,15.43
2022-10-03T02:14:20.800Z,9.65
2022-10-03T02:17:03.333Z,10.73
2022-10-03T02:19:48.339Z,12.48
2022-10-03T02:22:42.586Z,10.95
2022-10-03T02:25:23.911Z,16.38
2022-10-03T02:28:10.675Z,14.88
2022-10-03T02:30:39.789Z,14.82
2022-10-03T02:33:44.369Z,13.32
2022-10-03T02:36:41.511Z,14.05
2022-10-03T02:39:38.257Z,10.45
2022-10-03T02:42:40.223Z,15.20
2022-10-03T02:45:15.618Z,14.60
2022-10-03T02:48:19.815Z,12.68
2022-10-03T02:51:03.029Z,13.73
2022-10-03T02:54:08.935Z,15.63
2022-10-03T02:57:05.581Z,12.75
2022-10-03T03:00:03.598Z,15.10
2022-10-03T03:03:08.049Z,20.67
2022-10-03T03:06:17.850Z,17.10
2022-10-03T03:08:53.712Z,16.15
2022-10-03T03:11:29.243Z,10.00
2022-10-03T03:14:14.762Z,12.65
2022-10-03T03:19:47.905Z,12.50
2022-10-03T03:22:36.654Z,15.45
2022-10-03T03:25:33.801Z,11.05
2022-10-03T03:28:24.393Z,23.05
2022-10-03T03:31:07.111Z,14.57
2022-10-03T03:33:46.210Z,19.95
2022-10-03T03:36:37.925Z,18.30
2022-10-03T03:39:36.001Z,19.95
2022-10-03T03:42:37.898Z,26.55
2022-10-03T03:45:29.353Z,29.42
2022-10-03T03:48:12.144Z,24.00
2022-10-03T03:51:16.513Z,20.25
2022-10-03T03:54:01.314Z,20.33
2022-10-03T03:56:39.620Z,15.05
2022-10-03T03:59:13.476Z,16.85
2022-10-03T04:01:59.128Z,13.55
2022-10-03T04:04:41.216Z,20.58
2022-10-03T04:07:20.836Z,11.15
2022-10-03T04:10:01.850Z,16.60
2022-10-03T04:12:52.463Z,13.02
2022-10-03T04:15:39.016Z,12.85
2022-10-03T04:18:36.169Z,13.57
2022-10-03T04:21:18.754Z,13.85
2022-10-03T04:23:52.801Z,15.77
2022-10-03T04:26:28.433Z,11.27
2022-10-03T04:29:26.168Z,8.80
2022-10-03T04:32:11.430Z,11.18
2022-10-03T04:34:59.264Z,16.95
2022-10-03T04:37:48.926Z,15.48
2022-10-03T04:40:27.126Z,14.85
2022-10-03T04:42:53.456Z,17.85
2022-10-03T04:45:30.831Z,11.32
2022-10-03T04:48:28.788Z,10.77
2022-10-03T04:51:13.599Z,9.82
2022-10-03T04:53:56.865Z,16.35
2022-10-03T04:56:42.396Z,13.63
2022-10-03T05:02:37.889Z,11.27
2022-10-03T05:05:58.143Z,10.63
2022-10-03T05:08:46.050Z,12.93
2022-10-03T05:11:22.492Z,19.55
2022-10-03T05:14:08.708Z,14.38
2022-10-03T05:16:42.998Z,10.93
2022-10-03T05:19:37.471Z,15.25
2022-10-03T05:22:23.600Z,16.60
2022-10-03T05:25:15.084Z,17.60
2022-10-03T05:27:53.704Z,17.15
2022-10-03T05:30:34.069Z,16.98
2022-10-03T05:33:08.956Z,13.80
2022-10-03T05:35:47.904Z,21.65
2022-10-03T05:38:52.474Z,10.13
2022-10-03T05:41:32.555Z,14.32
2022-10-03T05:44:05.055Z,12.15
2022-10-03T05:46:49.833Z,12.50
2022-10-03T05:49:29.668Z,12.55
2022-10-03T05:52:15.338Z,12.30
2022-10-03T05:57:43.806Z,12.05
2022-10-03T06:00:19.159Z,19.00
2022-10-03T06:03:08.964Z,17.52
2022-10-03T06:05:56.114Z,13.23
2022-10-03T06:09:00.128Z,11.75
2022-10-03T06:11:42.461Z,14.07
2022-10-03T06:14:44.806Z,11.63
2022-10-03T06:17:21.472Z,17.92
2022-10-03T06:19:58.271Z,18.75
2022-10-03T06:22:43.235Z,13.27
2022-10-03T06:25:36.857Z,18.48
2022-10-03T06:28:31.202Z,16.55
2022-10-03T06:31:13.708Z,15.43
2022-10-03T06:34:17.769Z,19.20
2022-10-03T06:37:05.925Z,20.15
2022-10-03T06:40:10.269Z,20.80
2022-10-03T06:43:01.339Z,17.80
2022-10-03T06:46:09.257Z,16.25
2022-10-03T06:49:01.157Z,13.50
2022-10-03T06:52:03.271Z,10.43
2022-10-03T06:54:51.362Z,15.73
2022-10-03T06:57:42.100Z,16.52
2022-10-03T07:00:11.859Z,13.05
2022-10-03T07:02:41.445Z,17.95
2022-10-03T07:05:26.862Z,17.45
2022-10-03T07:08:22.044Z,15.98
2022-10-03T07:10:57.397Z,13.38
2022-10-03T07:13:53.151Z,15.82
2022-10-03T07:17:01.248Z,19.98
2022-10-03T07:19:51.010Z,16.42
2022-10-03T07:22:55.071Z,19.38
2022-10-03T07:25:36.187Z,17.85
2022-10-03T07:28:39.427Z,17.35
2022-10-03T07:31:22.227Z,23.92
2022-10-03T07:34:14.680Z,15.27
2022-10-03T07:37:54.917Z,15.40
2022-10-03T07:40:59.635Z,18.52
2022-10-03T07:43:55.014Z,21.85
2022-10-03T07:47:01.797Z,27.98
2022-10-03T07:49:48.396Z,25.45
2022-10-03T07:52:33.452Z,17.83
2022-10-03T07:55:18.214Z,23.42
2022-10-03T07:57:48.181Z,22.20
2022-10-03T08:00:22.641Z,26.45
2022-10-03T08:03:28.840Z,21.27
2022-10-03T08:06:16.370Z,29.73
2022-10-03T08:09:07.516Z,25.90
2022-10-03T08:12:18.008Z,28.75
2022-10-03T08:14:53.720Z,20.60
2022-10-03T08:17:54.161Z,30.08
2022-10-03T08:20:47.307Z,31.63
2022-10-03T08:23:41.378Z,32.08
2022-10-03T08:26:47.323Z,25.30
2022-10-03T08:29:23.699Z,34.60
2022-10-03T08:32:07.500Z,36.65
2022-10-03T08:34:58.307Z,33.85
2022-10-03T08:37:59.230Z,24.10
2022-10-03T08:40:53.439Z,29.75
2022-10-03T08:43:50.399Z,24.20
2022-10-03T08:46:19.883Z,22.63
2022-10-03T08:49:24.354Z,21.65
2022-10-03T08:52:10.664Z,23.48
2022-10-03T08:54:47.308Z,23.02
2022-10-03T08:57:34.030Z,22.92
2022-10-03T09:00:08.235Z,21.92
2022-10-03T09:06:52.762Z,26.95
2022-10-03T09:09:47.155Z,17.38
2022-10-03T09:12:22.876Z,26.65
2022-10-03T09:15:09.716Z,17.83
2022-10-03T09:18:18.485Z,19.40
2022-10-03T09:21:00.348Z,26.23
2022-10-03T09:23:58.269Z,19.20
2022-10-03T09:27:02.360Z,22.25
2022-10-03T09:29:38.626Z,18.25
2022-10-03T09:32:36.272Z,20.08
2022-10-03T09:35:27.744Z,23.10
2022-10-03T09:37:57.252Z,23.35
2022-10-03T09:40:53.212Z,24.33
2022-10-03T09:43:50.639Z,16.15
2022-10-03T09:47:13.773Z,21.88
2022-10-03T09:50:08.840Z,26.48
2022-10-03T09:52:47.662Z,24.83
2022-10-03T09:55:35.518Z,19.00
2022-10-03T09:58:05.189Z,18.33
2022-10-03T10:00:50.116Z,18.38
2022-10-03T10:03:16.432Z,23.73
2022-10-03T10:06:01.440Z,21.48
2022-10-03T10:08:36.803Z,16.17
2022-10-03T10:11:22.141Z,21.40
2022-10-03T10:14:07.564Z,13.68
2022-10-03T10:16:48.989Z,13.63
2022-10-03T10:19:31.959Z,16.30
2022-10-03T10:22:10.409Z,13.25
2022-10-03T10:25:05.453Z,17.58
2022-10-03T10:28:03.053Z,20.20
2022-10-03T10:30:47.819Z,17.27
2022-10-03T10:33:32.624Z,11.10
2022-10-03T10:36:38.235Z,15.07
2022-10-03T10:40:01.451Z,8.65
2022-10-03T10:42:52.411Z,13.88
2022-10-03T10:45:49.263Z,16.45
2022-10-03T10:48:37.180Z,9.90
2022-10-03T10:51:27.836Z,14.40
2022-10-03T10:54:29.710Z,10.65
2022-10-03T10:57:18.102Z,10.15
2022-10-03T11:00:12.806Z,8.60
2022-10-03T11:03:02.212Z,9.98
2022-10-03T11:05:34.769Z,12.90
2022-10-03T11:08:28.836Z,8.25
2022-10-03T11:11:35.766Z,9.18
2022-10-03T11:14:28.121Z,8.18
2022-10-03T11:17:19.440Z,16.70
2022-10-03T11:20:21.288Z,15.07
2022-10-03T11:23:12.632Z,8.98
2022-10-03T11:25:58.030Z,5.43
2022-10-03T11:28:36.755Z,6.50
2022-10-03T11:31:38.401Z,9.57
2022-10-03T11:34:31.934Z,17.05
2022-10-03T11:37:23.499Z,6.22
2022-10-03T11:40:06.503Z,6.68
2022-10-03T11:42:39.691Z,5.80
2022-10-03T11:45:16.186Z,6.85
2022-10-03T11:47:48.207Z,9.02
2022-10-03T11:50:23.347Z,6.75
2022-10-03T11:55:53.543Z,5.88
2022-10-03T11:58:33.943Z,8.10
2022-10-03T12:01:38.611Z,8.02
2022-10-03T12:04:08.150Z,9.55
2022-10-03T12:07:06.920Z,8.20
2022-10-03T12:09:45.481Z,6.75
2022-10-03T12:12:30.915Z,9.50
2022-10-03T12:15:23.509Z,3.25
2022-10-03T12:18:14.065Z,6.13
2022-10-03T12:21:12.491Z,7.88
2022-10-03T12:24:13.268Z,3.58
2022-10-03T12:26:53.462Z,5.07
2022-10-03T12:29:22.081Z,5.43
2022-10-03T12:32:14.704Z,8.02
2022-10-03T12:35:01.533Z,7.38
2022-10-03T12:37:57.547Z,7.35
2022-10-03T12:40:36.110Z,7.63
2022-10-03T12:43:16.628Z,5.28
2022-10-03T12:46:03.429Z,7.38
2022-10-03T12:48:51.237Z,7.68
2022-10-03T12:51:31.388Z,5.45
2022-10-03T12:54:22.482Z,6.82
2022-10-03T12:57:23.743Z,5.45
2022-10-03T13:00:00.186Z,8.50
2022-10-03T13:02:36.619Z,8.60
2022-10-03T13:05:30.601Z,4.65
2022-10-03T13:08:06.789Z,6.60
2022-10-03T13:10:48.735Z,6.55
2022-10-03T13:13:57.280Z,7.05
2022-10-03T13:16:41.231Z,6.78
2022-10-03T13:19:15.823Z,11.60
2022-10-03T13:21:51.614Z,2.78
2022-10-03T13:25:00.082Z,4.32
2022-10-03T13:27:32.279Z,5.35
2022-10-03T13:30:18.601Z,1.95
2022-10-03T13:32:52.107Z,8.93
2022-10-03T13:35:58.964Z,11.20
2022-10-03T13:38:34.852Z,3.90
2022-10-03T13:41:26.458Z,8.60
2022-10-03T13:44:04.995Z,5.97
2022-10-03T13:46:40.951Z,5.53
2022-10-03T13:49:35.754Z,8.55
2022-10-03T13:52:18.593Z,5.57
2022-10-03T13:55:22.532Z,4.88
2022-10-03T13:58:23.340Z,5.38
2022-10-03T14:01:14.181Z,3.08
2022-10-03T14:04:16.132Z,6.60
2022-10-03T14:07:30.489Z,5.38
2022-10-03T14:10:18.473Z,5.40
2022-10-03T14:12:57.283Z,4.45
2022-10-03T14:15:39.793Z,13.55
2022-10-03T14:18:43.998Z,5.80
2022-10-03T14:21:29.907Z,5.20
2022-10-03T14:24:05.108Z,6.90
2022-10-03T14:26:56.831Z,7.70
2022-10-03T14:29:27.605Z,6.82
2022-10-03T14:31:57.765Z,5.20
2022-10-03T14:34:53.774Z,5.43
2022-10-03T14:40:28.167Z,7.55
2022-10-03T14:43:02.310Z,6.38
2022-10-03T14:45:33.984Z,8.13
2022-10-03T14:48:08.710Z,5.45
2022-10-03T14:50:40.444Z,6.18
2022-10-03T14:53:25.519Z,7.32
2022-10-03T14:55:51.909Z,5.45
2022-10-03T14:58:32.567Z,4.30
2022-10-03T15:01:04.340Z,6.93
2022-10-03T15:03:38.268Z,5.40
2022-10-03T15:06:10.507Z,4.38
2022-10-03T15:08:44.520Z,4.93
2022-10-03T15:11:14.341Z,8.88
2022-10-03T15:13:46.798Z,4.82
2022-10-03T15:16:19.734Z,5.60
2022-10-03T15:18:53.793Z,5.50
2022-10-03T15:21:22.018Z,10.02
2022-10-03T15:23:56.598Z,7.35
2022-10-03T15:26:25.906Z,7.95
2022-10-03T15:28:59.245Z,7.07
2022-10-03T15:31:39.282Z,6.70
2022-10-03T15:34:16.184Z,3.42
2022-10-03T15:36:50.795Z,3.60
2022-10-03T15:39:19.520Z,6.88
2022-10-03T15:42:15.337Z,5.40
2022-10-03T15:44:55.651Z,4.40
2022-10-03T15:47:31.309Z,6.38
2022-10-03T15:50:23.125Z,5.45
2022-10-03T15:52:54.696Z,4.07
2022-10-03T15:55:24.306Z,5.53
2022-10-03T15:58:16.502Z,3.08
2022-10-03T16:00:49.584Z,7.40
2022-10-03T16:03:23.965Z,3.72
2022-10-03T16:05:59.669Z,2.90
2022-10-03T16:08:30.776Z,5.28
2022-10-03T16:11:27.028Z,5.47
2022-10-03T16:14:18.060Z,3.20
2022-10-03T16:16:50.853Z,5.85
2022-10-03T16:19:52.201Z,7.75
2022-10-03T16:22:43.302Z,4.40
2022-10-03T16:25:16.181Z,5.63
2022-10-03T16:27:53.665Z,6.82
2022-10-03T16:30:20.696Z,2.63
2022-10-03T16:32:50.950Z,7.00
2022-10-03T16:35:45.203Z,4.85
2022-10-03T16:38:17.787Z,10.23
2022-10-03T16:40:53.451Z,4.75
2022-10-03T16:43:21.231Z,15.82
2022-10-03T16:45:49.012Z,8.90
2022-10-03T16:48:47.554Z,5.10
2022-10-03T16:51:51.802Z,5.45
2022-10-03T16:54:21.947Z,5.72
2022-10-03T16:56:55.077Z,5.43
2022-10-03T16:59:23.828Z,8.68
2022-10-03T17:01:53.993Z,5.63
2022-10-03T17:04:28.884Z,5.47
2022-10-03T17:07:28.928Z,9.90
2022-10-03T17:09:58.626Z,3.58
2022-10-03T17:12:30.624Z,7.43
2022-10-03T17:15:04.311Z,14.00
2022-10-03T17:17:48.525Z,8.73
2022-10-03T17:20:48.237Z,8.30
2022-10-03T17:23:26.337Z,6.65
2022-10-03T17:26:20.126Z,7.55
2022-10-03T17:29:18.841Z,10.27
2022-10-03T17:31:54.552Z,6.88
2022-10-03T17:34:29.090Z,13.73
2022-10-03T17:37:34.193Z,5.82
2022-10-03T17:40:28.339Z,7.13
2022-10-03T17:43:01.140Z,7.85
2022-10-03T17:45:31.429Z,4.82
2022-10-03T17:48:33.362Z,7.35
2022-10-03T17:51:48.392Z,6.68
2022-10-03T17:54:19.032Z,5.90
2022-10-03T17:56:57.976Z,9.82
2022-10-03T17:59:30.233Z,6.47
2022-10-03T18:02:16.197Z,5.60
2022-10-03T18:04:47.322Z,9.15
2022-10-03T18:07:19.629Z,5.70
2022-10-03T18:09:49.122Z,6.20
2022-10-03T18:12:30.024Z,7.35
2022-10-03T18:15:06.207Z,19.10
2022-10-03T18:17:55.739Z,7.47
2022-10-03T18:20:45.045Z,9.43
2022-10-03T18:23:49.915Z,7.32
2022-10-03T18:26:23.560Z,6.93
2022-10-03T18:29:14.806Z,6.88
2022-10-03T18:31:48.156Z,8.07
2022-10-03T18:34:21.154Z,6.40
2022-10-03T18:36:50.693Z,10.73
2022-10-03T18:39:29.612Z,8.20
2022-10-03T18:42:01.576Z,9.73
2022-10-03T18:44:32.260Z,9.70
2022-10-03T18:47:13.974Z,7.65
2022-10-03T18:49:47.840Z,10.15
2022-10-03T18:52:44.366Z,8.95
2022-10-03T18:55:21.229Z,5.90
2022-10-03T18:58:01.387Z,9.98
2022-10-03T19:00:31.298Z,6.88
2022-10-03T19:03:15.352Z,11.45
2022-10-03T19:05:57.200Z,9.38
2022-10-03T19:08:34.213Z,8.40
2022-10-03T19:11:16.517Z,9.50
2022-10-03T19:14:07.658Z,7.45
2022-10-03T19:16:37.196Z,8.70
2022-10-03T19:19:28.632Z,16.67
2022-10-03T19:21:56.657Z,21.05
2022-10-03T19:24:46.499Z,17.02
2022-10-03T19:27:20.577Z,18.85
2022-10-03T19:29:51.129Z,15.82
2022-10-03T19:32:49.326Z,13.35
2022-10-03T19:35:21.172Z,6.15
2022-10-03T19:38:00.507Z,15.13
2022-10-03T19:40:56.274Z,9.77
2022-10-03T19:43:34.124Z,8.23
2022-10-03T19:46:22.428Z,7.97
2022-10-03T19:49:00.957Z,14.20
2022-10-03T19:51:27.920Z,17.58
2022-10-03T19:53:57.255Z,13.57
2022-10-03T19:56:27.461Z,16.40
2022-10-03T19:59:07.140Z,22.35
2022-10-03T20:01:53.899Z,17.88
2022-10-03T20:04:36.978Z,18.17
2022-10-03T20:07:17.567Z,20.25
2022-10-03T20:10:01.722Z,14.65
2022-10-03T20:12:30.590Z,16.67
2022-10-03T20:15:22.163Z,15.65
2022-10-03T20:17:50.996Z,14.35
2022-10-03T20:20:22.660Z,22.67
2022-10-03T20:22:49.593Z,24.77
2022-10-03T20:25:50.508Z,19.77
2022-10-03T20:28:57.833Z,26.23
2022-10-03T20:31:27.513Z,22.08
2022-10-03T20:33:59.336Z,26.80
2022-10-03T20:36:32.254Z,23.95
2022-10-03T20:39:01.607Z,21.75
2022-10-03T20:41:37.754Z,20.98
2022-10-03T20:44:10.720Z,14.85
2022-10-03T20:46:45.676Z,17.27
2022-10-03T20:49:43.003Z,18.52
2022-10-03T20:52:18.567Z,13.38
2022-10-03T20:54:49.922Z,11.68
2022-10-03T20:57:18.609Z,12.20
2022-10-03T20:59:49.247Z,11.88
2022-10-03T21:02:40.625Z,9.48
2022-10-03T21:05:36.390Z,7.25
2022-10-03T21:08:10.898Z,10.60
2022-10-03T21:10:40.642Z,9.90
2022-10-03T21:13:14.991Z,16.17
2022-10-03T21:15:53.749Z,13.00
2022-10-03T21:18:28.287Z,11.23
2022-10-03T21:21:10.405Z,11.77
2022-10-03T21:23:43.807Z,14.90
2022-10-03T21:26:11.731Z,12.93
2022-10-03T21:28:38.986Z,15.07
2022-10-03T21:31:38.643Z,14.55
2022-10-03T21:34:23.342Z,12.80
2022-10-03T21:37:11.209Z,12.93
2022-10-03T21:39:44.957Z,8.60
2022-10-03T21:42:25.385Z,14.00
2022-10-03T21:45:16.426Z,11.07
2022-10-03T21:47:50.084Z,17.38
2022-10-03T21:50:25.032Z,15.32
2022-10-03T21:53:08.837Z,13.02
2022-10-03T21:55:53.045Z,11.15
2022-10-03T21:58:38.600Z,9.25
2022-10-03T22:01:05.055Z,10.02
2022-10-03T22:03:43.985Z,13.43
2022-10-03T22:07:02.255Z,10.00
2022-10-03T22:09:28.830Z,8.98
2022-10-03T22:12:00.359Z,9.48
2022-10-03T22:14:35.723Z,12.98
2022-10-03T22:17:26.474Z,12.75
2022-10-03T22:20:12.548Z,15.35
2022-10-03T22:22:57.621Z,9.63
2022-10-03T22:25:45.961Z,7.82
2022-10-03T22:28:38.739Z,10.25
2022-10-03T22:31:25.609Z,10.63
2022-10-03T22:34:24.565Z,13.93
2022-10-03T22:36:51.493Z,10.90
2022-10-03T22:39:20.606Z,11.05
2022-10-03T22:41:50.441Z,10.23
2022-10-03T22:44:22.788Z,13.40
2022-10-03T22:46:51.912Z,15.95
2022-10-03T22:49:22.709Z,12.18
2022-10-03T22:51:53.846Z,7.10
2022-10-03T22:54:20.996Z,9.25
2022-10-03T22:56:58.766Z,10.13
2022-10-03T22:59:28.734Z,9.30
2022-10-03T23:01:58.845Z,9.13
2022-10-03T23:04:40.207Z,8.80
2022-10-03T23:07:24.335Z,8.15
2022-10-03T23:10:09.795Z,9.98
2022-10-03T23:12:45.271Z,11.30
2022-10-03T23:15:17.193Z,7.72
2022-10-03T23:17:55.630Z,10.30
2022-10-03T23:20:40.382Z,11.00
2022-10-03T23:23:16.456Z,9.13
2022-10-03T23:25:48.681Z,8.93
2022-10-03T23:28:32.492Z,8.60
2022-10-03T23:30:59.676Z,10.20
2022-10-03T23:33:32.455Z,11.95
2022-10-03T23:36:25.578Z,11.07
2022-10-03T23:38:58.755Z,9.98
2022-10-03T23:41:44.146Z,8.27
2022-10-03T23:44:49.879Z,13.40
2022-10-03T23:47:19.652Z,8.70
2022-10-03T23:49:48.366Z,9.13
2022-10-03T23:52:30.728Z,17.80
2022-10-03T23:55:03.785Z,12.52
2022-10-03T23:57:37.481Z,12.85
